sensor_id;sensor_type;location;lat;lon;timestamp;pressure;altitude;pressure_sealevel;temperature;humidity
30744;BME280;17486;46.738;7.622;2022-11-20T00:00:22;94885.19;;;7.36;55.73
30744;BME280;17486;46.738;7.622;2022-11-20T00:02:48;94884.63;;;7.29;56.31
30744;BME280;17486;46.738;7.622;2022-11-20T00:05:13;94884.78;;;7.26;56.11
30744;BME280;17486;46.738;7.622;2022-11-20T00:07:38;94861.34;;;7.08;55.93
30744;BME280;17486;46.738;7.622;2022-11-20T00:10:04;94900.41;;;7.23;56.04
30744;BME280;17486;46.738;7.622;2022-11-20T00:12:30;94892.72;;;7.21;56.03
30744;BME280;17486;46.738;7.622;2022-11-20T00:14:55;94886.13;;;7.14;56.57
30744;BME280;17486;46.738;7.622;2022-11-20T00:17:20;94868.44;;;7.03;56.30
30744;BME280;17486;46.738;7.622;2022-11-20T00:19:46;94872.31;;;6.93;56.19
30744;BME280;17486;46.738;7.622;2022-11-20T00:22:11;94892.69;;;7.01;56.78
30744;BME280;17486;46.738;7.622;2022-11-20T00:24:36;94896.38;;;6.95;56.86
30744;BME280;17486;46.738;7.622;2022-11-20T00:27:02;94888.09;;;6.87;57.19
30744;BME280;17486;46.738;7.622;2022-11-20T00:29:27;94888.09;;;6.87;56.87
30744;BME280;17486;46.738;7.622;2022-11-20T00:31:53;94864.69;;;6.69;57.11
30744;BME280;17486;46.738;7.622;2022-11-20T00:34:18;94857.13;;;6.64;57.47
30744;BME280;17486;46.738;7.622;2022-11-20T00:36:43;94894.31;;;6.83;57.95
30744;BME280;17486;46.738;7.622;2022-11-20T00:39:09;94895.22;;;6.82;57.85
30744;BME280;17486;46.738;7.622;2022-11-20T00:41:34;94898.56;;;6.84;57.92
30744;BME280;17486;46.738;7.622;2022-11-20T00:43:59;94863.84;;;6.69;57.21
30744;BME280;17486;46.738;7.622;2022-11-20T00:46:26;94874.69;;;6.77;57.81
30744;BME280;17486;46.738;7.622;2022-11-20T00:48:52;94872.25;;;6.74;57.62
30744;BME280;17486;46.738;7.622;2022-11-20T00:51:20;94870.50;;;6.74;57.25
30744;BME280;17486;46.738;7.622;2022-11-20T00:53:46;94895.66;;;6.91;57.13
30744;BME280;17486;46.738;7.622;2022-11-20T00:56:14;94879.81;;;6.78;57.19
30744;BME280;17486;46.738;7.622;2022-11-20T00:58:42;94871.41;;;6.73;57.31
30744;BME280;17486;46.738;7.622;2022-11-20T01:01:17;94877.28;;;6.77;57.52
30744;BME280;17486;46.738;7.622;2022-11-20T01:03:50;94923.03;;;6.97;57.31
30744;BME280;17486;46.738;7.622;2022-11-20T01:06:19;94924.03;;;6.93;58.06
30744;BME280;17486;46.738;7.622;2022-11-20T01:08:45;94935.03;;;6.98;57.58
30744;BME280;17486;46.738;7.622;2022-11-20T01:11:17;94908.88;;;6.84;57.80
30744;BME280;17486;46.738;7.622;2022-11-20T01:13:45;94913.22;;;6.83;57.66
30744;BME280;17486;46.738;7.622;2022-11-20T01:16:16;94933.31;;;6.99;57.80
30744;BME280;17486;46.738;7.622;2022-11-20T01:18:45;94941.72;;;7.04;57.80
30744;BME280;17486;46.738;7.622;2022-11-20T01:21:16;94934.25;;;6.96;58.07
30744;BME280;17486;46.738;7.622;2022-11-20T01:23:42;94951.19;;;7.03;58.18
30744;BME280;17486;46.738;7.622;2022-11-20T01:26:14;94925.91;;;6.89;58.67
30744;BME280;17486;46.738;7.622;2022-11-20T01:28:40;94928.50;;;6.89;58.00
30744;BME280;17486;46.738;7.622;2022-11-20T01:33:51;94919.88;;;6.89;58.66
30744;BME280;17486;46.738;7.622;2022-11-20T01:36:18;94949.53;;;7.02;58.22
30744;BME280;17486;46.738;7.622;2022-11-20T01:38:43;94919.38;;;6.80;59.19
30744;BME280;17486;46.738;7.622;2022-11-20T01:41:10;94943.72;;;6.97;58.72
30744;BME280;17486;46.738;7.622;2022-11-20T01:43:36;94925.00;;;6.90;59.14
30744;BME280;17486;46.738;7.622;2022-11-20T01:46:17;94951.84;;;7.08;59.26
30744;BME280;17486;46.738;7.622;2022-11-20T01:51:17;94946.75;;;7.07;58.92
30744;BME280;17486;46.738;7.622;2022-11-20T01:53:45;94951.78;;;7.10;58.92
30744;BME280;17486;46.738;7.622;2022-11-20T01:56:12;94969.84;;;7.11;59.01
30744;BME280;17486;46.738;7.622;2022-11-20T01:58:43;94935.88;;;6.99;59.15
30744;BME280;17486;46.738;7.622;2022-11-20T02:01:11;94965.56;;;7.10;59.21
30744;BME280;17486;46.738;7.622;2022-11-20T02:03:37;94965.56;;;7.10;58.93
30744;BME280;17486;46.738;7.622;2022-11-20T02:06:19;94935.22;;;6.93;59.09
30744;BME280;17486;46.738;7.622;2022-11-20T02:08:47;94958.84;;;7.06;58.88
30744;BME280;17486;46.738;7.622;2022-11-20T02:11:12;94956.50;;;7.00;59.32
30744;BME280;17486;46.738;7.622;2022-11-20T02:13:38;94927.78;;;6.86;58.90
30744;BME280;17486;46.738;7.622;2022-11-20T02:16:16;94927.66;;;6.89;59.17
30744;BME280;17486;46.738;7.622;2022-11-20T02:18:44;94972.44;;;7.11;59.03
30744;BME280;17486;46.738;7.622;2022-11-20T02:24:05;94957.09;;;7.07;59.29
30744;BME280;17486;46.738;7.622;2022-11-20T02:26:35;94935.34;;;6.90;59.22
30744;BME280;17486;46.738;7.622;2022-11-20T02:29:03;94931.84;;;6.91;58.89
30744;BME280;17486;46.738;7.622;2022-11-20T02:31:29;94955.47;;;7.04;59.15
30744;BME280;17486;46.738;7.622;2022-11-20T02:33:58;94956.63;;;6.97;58.98
30744;BME280;17486;46.738;7.622;2022-11-20T02:36:26;94927.13;;;6.80;59.65
30744;BME280;17486;46.738;7.622;2022-11-20T02:38:53;94958.34;;;6.96;59.50
30744;BME280;17486;46.738;7.622;2022-11-20T02:41:18;94930.50;;;6.83;59.75
30744;BME280;17486;46.738;7.622;2022-11-20T02:43:44;94950.84;;;6.90;59.62
30744;BME280;17486;46.738;7.622;2022-11-20T02:46:09;94959.38;;;6.92;59.37
30744;BME280;17486;46.738;7.622;2022-11-20T02:48:35;94921.50;;;6.71;59.38
30744;BME280;17486;46.738;7.622;2022-11-20T02:51:00;94962.88;;;6.91;59.65
30744;BME280;17486;46.738;7.622;2022-11-20T02:53:26;94960.19;;;6.94;59.49
30744;BME280;17486;46.738;7.622;2022-11-20T02:55:51;94959.22;;;6.97;59.22
30744;BME280;17486;46.738;7.622;2022-11-20T02:58:16;94966.06;;;6.98;59.45
30744;BME280;17486;46.738;7.622;2022-11-20T03:00:42;94967.66;;;7.01;59.18
30744;BME280;17486;46.738;7.622;2022-11-20T03:03:07;94964.19;;;7.02;59.39
30744;BME280;17486;46.738;7.622;2022-11-20T03:05:33;94959.88;;;7.02;58.88
30744;BME280;17486;46.738;7.622;2022-11-20T03:07:58;94963.47;;;6.98;58.83
30744;BME280;17486;46.738;7.622;2022-11-20T03:10:24;94930.72;;;6.76;59.07
30744;BME280;17486;46.738;7.622;2022-11-20T03:12:55;94960.34;;;6.90;58.82
30744;BME280;17486;46.738;7.622;2022-11-20T03:15:22;94935.09;;;6.74;58.76
30744;BME280;17486;46.738;7.622;2022-11-20T03:17:48;94931.63;;;6.75;58.49
30744;BME280;17486;46.738;7.622;2022-11-20T03:20:14;94946.09;;;6.79;58.98
30744;BME280;17486;46.738;7.622;2022-11-20T03:22:39;94935.25;;;6.71;58.71
30744;BME280;17486;46.738;7.622;2022-11-20T03:25:05;94959.59;;;6.88;59.18
30744;BME280;17486;46.738;7.622;2022-11-20T03:27:34;94966.69;;;6.83;58.71
30744;BME280;17486;46.738;7.622;2022-11-20T03:30:00;94957.47;;;6.75;58.02
30744;BME280;17486;46.738;7.622;2022-11-20T03:32:25;94930.50;;;6.60;57.98
30744;BME280;17486;46.738;7.622;2022-11-20T03:34:51;94956.03;;;6.68;58.14
30744;BME280;17486;46.738;7.622;2022-11-20T03:37:16;94943.53;;;6.57;57.99
30744;BME280;17486;46.738;7.622;2022-11-20T03:39:41;94960.41;;;6.66;58.04
30744;BME280;17486;46.738;7.622;2022-11-20T03:42:08;94947.78;;;6.58;57.58
30744;BME280;17486;46.738;7.622;2022-11-20T03:44:53;94967.94;;;6.72;58.14
30744;BME280;17486;46.738;7.622;2022-11-20T03:47:19;94941.91;;;6.55;57.90
30744;BME280;17486;46.738;7.622;2022-11-20T03:49:44;94937.66;;;6.54;57.44
30744;BME280;17486;46.738;7.622;2022-11-20T03:52:10;94940.19;;;6.55;57.19
30744;BME280;17486;46.738;7.622;2022-11-20T03:54:35;94939.31;;;6.55;57.50
30744;BME280;17486;46.738;7.622;2022-11-20T03:57:00;94938.47;;;6.54;57.98
30744;BME280;17486;46.738;7.622;2022-11-20T03:59:26;94968.97;;;6.68;57.26
30744;BME280;17486;46.738;7.622;2022-11-20T04:01:51;94975.75;;;6.71;57.05
30744;BME280;17486;46.738;7.622;2022-11-20T04:04:16;94948.00;;;6.54;57.63
30744;BME280;17486;46.738;7.622;2022-11-20T04:06:42;94949.91;;;6.49;57.08
30744;BME280;17486;46.738;7.622;2022-11-20T04:09:07;94949.13;;;6.46;57.06
30744;BME280;17486;46.738;7.622;2022-11-20T04:11:34;94985.38;;;6.67;57.32
30744;BME280;17486;46.738;7.622;2022-11-20T04:14:05;94980.19;;;6.67;57.18
30744;BME280;17486;46.738;7.622;2022-11-20T04:16:34;94948.09;;;6.51;57.39
30744;BME280;17486;46.738;7.622;2022-11-20T04:19:01;94974.91;;;6.70;57.38
30744;BME280;17486;46.738;7.622;2022-11-20T04:21:27;94975.91;;;6.66;57.54
30744;BME280;17486;46.738;7.622;2022-11-20T04:23:53;94989.06;;;6.60;57.58
30744;BME280;17486;46.738;7.622;2022-11-20T04:26:20;94963.13;;;6.41;57.86
30744;BME280;17486;46.738;7.622;2022-11-20T04:28:46;94979.09;;;6.51;57.91
30744;BME280;17486;46.738;7.622;2022-11-20T04:31:14;94958.66;;;6.44;57.18
30744;BME280;17486;46.738;7.622;2022-11-20T04:33:40;94944.22;;;6.39;57.54
30744;BME280;17486;46.738;7.622;2022-11-20T04:36:14;94960.19;;;6.50;57.21
30744;BME280;17486;46.738;7.622;2022-11-20T04:38:40;94947.56;;;6.42;56.55
30744;BME280;17486;46.738;7.622;2022-11-20T04:41:07;94977.00;;;6.60;56.51
30744;BME280;17486;46.738;7.622;2022-11-20T04:43:33;94942.38;;;6.42;57.08
30744;BME280;17486;46.738;7.622;2022-11-20T04:46:00;94936.19;;;6.46;56.59
30744;BME280;17486;46.738;7.622;2022-11-20T04:48:27;94973.22;;;6.69;56.27
30744;BME280;17486;46.738;7.622;2022-11-20T04:50:53;94968.84;;;6.71;56.06
30744;BME280;17486;46.738;7.622;2022-11-20T04:53:19;94947.84;;;6.57;56.83
30744;BME280;17486;46.738;7.622;2022-11-20T04:55:44;94938.34;;;6.57;56.11
30744;BME280;17486;46.738;7.622;2022-11-20T04:58:10;94975.41;;;6.80;56.21
30744;BME280;17486;46.738;7.622;2022-11-20T05:00:35;94958.13;;;6.80;56.18
30744;BME280;17486;46.738;7.622;2022-11-20T05:03:01;94930.38;;;6.63;55.63
30744;BME280;17486;46.738;7.622;2022-11-20T05:05:27;94928.59;;;6.66;55.62
30744;BME280;17486;46.738;7.622;2022-11-20T05:07:52;94940.53;;;6.68;56.32
30744;BME280;17486;46.738;7.622;2022-11-20T05:10:18;94962.34;;;6.83;56.21
30744;BME280;17486;46.738;7.622;2022-11-20T05:12:43;94963.25;;;6.82;56.63
30744;BME280;17486;46.738;7.622;2022-11-20T05:15:09;94962.28;;;6.85;56.48
30744;BME280;17486;46.738;7.622;2022-11-20T05:17:34;94932.00;;;6.66;56.59
30744;BME280;17486;46.738;7.622;2022-11-20T05:20:00;94964.94;;;6.83;56.03
30744;BME280;17486;46.738;7.622;2022-11-20T05:22:25;94961.44;;;6.84;55.98
30744;BME280;17486;46.738;7.622;2022-11-20T05:24:51;94938.84;;;6.67;56.45
30744;BME280;17486;46.738;7.622;2022-11-20T05:27:16;94965.72;;;6.85;56.52
30744;BME280;17486;46.738;7.622;2022-11-20T05:29:41;94968.31;;;6.85;56.38
30744;BME280;17486;46.738;7.622;2022-11-20T05:32:07;94970.94;;;6.84;56.16
30744;BME280;17486;46.738;7.622;2022-11-20T05:34:35;94939.16;;;6.59;56.06
30744;BME280;17486;46.738;7.622;2022-11-20T05:37:00;94966.19;;;6.73;55.78
30744;BME280;17486;46.738;7.622;2022-11-20T05:39:26;94951.28;;;6.57;56.03
30744;BME280;17486;46.738;7.622;2022-11-20T05:41:51;94977.41;;;6.72;56.10
30744;BME280;17486;46.738;7.622;2022-11-20T05:44:36;94959.09;;;6.56;55.54
30744;BME280;17486;46.738;7.622;2022-11-20T05:47:02;94954.81;;;6.55;55.44
30744;BME280;17486;46.738;7.622;2022-11-20T05:49:27;94967.56;;;6.59;55.44
30744;BME280;17486;46.738;7.622;2022-11-20T05:51:52;95007.38;;;6.77;55.57
30744;BME280;17486;46.738;7.622;2022-11-20T05:54:18;94963.00;;;6.66;55.28
30744;BME280;17486;46.738;7.622;2022-11-20T05:56:43;94984.13;;;6.77;55.56
30744;BME280;17486;46.738;7.622;2022-11-20T05:59:09;94957.00;;;6.66;55.72
30744;BME280;17486;46.738;7.622;2022-11-20T06:01:34;94963.00;;;6.66;55.36
30744;BME280;17486;46.738;7.622;2022-11-20T06:04:01;94987.22;;;6.86;55.88
30744;BME280;17486;46.738;7.622;2022-11-20T06:06:27;94989.81;;;6.86;55.85
30744;BME280;17486;46.738;7.622;2022-11-20T06:08:52;94988.97;;;6.85;56.04
30744;BME280;17486;46.738;7.622;2022-11-20T06:11:18;94995.13;;;6.83;55.74
30744;BME280;17486;46.738;7.622;2022-11-20T06:13:44;94954.47;;;6.64;56.03
30744;BME280;17486;46.738;7.622;2022-11-20T06:16:12;94961.25;;;6.67;55.82
30744;BME280;17486;46.738;7.622;2022-11-20T06:18:38;94985.84;;;6.77;55.78
30744;BME280;17486;46.738;7.622;2022-11-20T06:21:12;94990.91;;;6.80;55.76
30744;BME280;17486;46.738;7.622;2022-11-20T06:23:38;94960.78;;;6.57;56.48
30744;BME280;17486;46.738;7.622;2022-11-20T06:26:06;94978.16;;;6.75;56.54
30744;BME280;17486;46.738;7.622;2022-11-20T06:28:32;94985.75;;;6.80;56.28
30744;BME280;17486;46.738;7.622;2022-11-20T06:30:57;94986.56;;;6.80;56.20
30744;BME280;17486;46.738;7.622;2022-11-20T06:33:23;94984.13;;;6.77;56.79
30744;BME280;17486;46.738;7.622;2022-11-20T06:35:48;94986.56;;;6.80;56.34
30744;BME280;17486;46.738;7.622;2022-11-20T06:38:14;94954.34;;;6.67;56.59
30744;BME280;17486;46.738;7.622;2022-11-20T06:40:42;94989.81;;;6.86;56.72
30744;BME280;17486;46.738;7.622;2022-11-20T06:43:09;94957.97;;;6.63;56.33
30744;BME280;17486;46.738;7.622;2022-11-20T06:45:35;94978.94;;;6.77;56.96
30744;BME280;17486;46.738;7.622;2022-11-20T06:48:01;94986.63;;;6.79;56.40
30744;BME280;17486;46.738;7.622;2022-11-20T06:50:26;94971.56;;;6.68;57.16
30744;BME280;17486;46.738;7.622;2022-11-20T06:52:51;94964.69;;;6.67;56.83
30744;BME280;17486;46.738;7.622;2022-11-20T06:55:17;94986.44;;;6.84;56.71
30744;BME280;17486;46.738;7.622;2022-11-20T06:57:42;94963.81;;;6.68;57.19
30744;BME280;17486;46.738;7.622;2022-11-20T07:00:08;94990.59;;;6.88;57.27
30744;BME280;17486;46.738;7.622;2022-11-20T07:02:33;94971.41;;;6.71;57.26
30744;BME280;17486;46.738;7.622;2022-11-20T07:04:59;94970.47;;;6.74;57.14
30744;BME280;17486;46.738;7.622;2022-11-20T07:07:24;94972.19;;;6.73;57.74
30744;BME280;17486;46.738;7.622;2022-11-20T07:09:50;94976.47;;;6.74;57.27
30744;BME280;17486;46.738;7.622;2022-11-20T07:12:15;95020.47;;;6.95;57.61
30744;BME280;17486;46.738;7.622;2022-11-20T07:14:41;94998.22;;;6.91;57.83
30744;BME280;17486;46.738;7.622;2022-11-20T07:17:06;95021.19;;;6.99;57.76
30744;BME280;17486;46.738;7.622;2022-11-20T07:19:31;95010.72;;;7.02;57.58
30744;BME280;17486;46.738;7.622;2022-11-20T07:21:57;94991.50;;;6.87;57.37
30744;BME280;17486;46.738;7.622;2022-11-20T07:24:22;94980.56;;;6.80;57.41
30744;BME280;17486;46.738;7.622;2022-11-20T07:26:47;95015.31;;;6.95;57.69
30744;BME280;17486;46.738;7.622;2022-11-20T07:29:15;95031.72;;;6.94;57.40
30744;BME280;17486;46.738;7.622;2022-11-20T07:31:41;95024.97;;;6.90;57.73
30744;BME280;17486;46.738;7.622;2022-11-20T07:34:06;95034.19;;;6.97;57.87
30744;BME280;17486;46.738;7.622;2022-11-20T07:36:31;94996.78;;;6.84;57.75
30744;BME280;17486;46.738;7.622;2022-11-20T07:38:57;95007.09;;;6.85;58.37
30744;BME280;17486;46.738;7.622;2022-11-20T07:41:22;95012.13;;;6.88;58.09
30744;BME280;17486;46.738;7.622;2022-11-20T07:43:48;95045.59;;;7.13;58.14
30744;BME280;17486;46.738;7.622;2022-11-20T07:46:13;95046.41;;;7.16;57.94
30744;BME280;17486;46.738;7.622;2022-11-20T07:48:39;95057.41;;;7.21;57.88
30744;BME280;17486;46.738;7.622;2022-11-20T07:51:04;95040.25;;;7.18;57.79
30744;BME280;17486;46.738;7.622;2022-11-20T07:53:29;95022.31;;;7.13;57.74
30744;BME280;17486;46.738;7.622;2022-11-20T07:55:55;95045.00;;;7.29;58.18
30744;BME280;17486;46.738;7.622;2022-11-20T07:58:24;95029.84;;;7.20;58.15
30744;BME280;17486;46.738;7.622;2022-11-20T08:00:49;95051.50;;;7.39;58.09
30744;BME280;17486;46.738;7.622;2022-11-20T08:03:14;95053.94;;;7.42;57.90
30744;BME280;17486;46.738;7.622;2022-11-20T08:05:40;95058.94;;;7.47;57.92
30744;BME280;17486;46.738;7.622;2022-11-20T08:08:05;95034.28;;;7.38;57.73
30744;BME280;17486;46.738;7.622;2022-11-20T08:10:32;95034.16;;;7.41;57.21
30744;BME280;17486;46.738;7.622;2022-11-20T08:12:57;95056.72;;;7.60;57.20
30744;BME280;17486;46.738;7.622;2022-11-20T08:15:41;95063.22;;;7.69;56.90
30744;BME280;17486;46.738;7.622;2022-11-20T08:18:09;95037.00;;;7.56;56.96
30744;BME280;17486;46.738;7.622;2022-11-20T08:20:36;95069.78;;;7.77;56.90
30744;BME280;17486;46.738;7.622;2022-11-20T08:23:03;95034.97;;;7.64;57.19
30744;BME280;17486;46.738;7.622;2022-11-20T08:25:31;95069.22;;;7.91;57.35
30744;BME280;17486;46.738;7.622;2022-11-20T08:27:58;95061.38;;;7.93;56.83
30744;BME280;17486;46.738;7.622;2022-11-20T08:30:23;95050.06;;;7.95;56.77
30744;BME280;17486;46.738;7.622;2022-11-20T08:32:48;95033.09;;;7.88;56.29
30744;BME280;17486;46.738;7.622;2022-11-20T08:35:14;95064.94;;;8.11;56.64
30744;BME280;17486;46.738;7.622;2022-11-20T08:37:40;95039.56;;;7.99;56.60
30744;BME280;17486;46.738;7.622;2022-11-20T08:40:10;95041.88;;;8.05;56.53
30744;BME280;17486;46.738;7.622;2022-11-20T08:42:36;95064.34;;;8.25;56.45
30744;BME280;17486;46.738;7.622;2022-11-20T08:45:01;95058.97;;;8.29;56.33
30744;BME280;17486;46.738;7.622;2022-11-20T08:47:27;95064.84;;;8.33;56.14
30744;BME280;17486;46.738;7.622;2022-11-20T08:49:53;95059.59;;;8.35;56.34
30744;BME280;17486;46.738;7.622;2022-11-20T08:52:18;95066.13;;;8.43;56.15
30744;BME280;17486;46.738;7.622;2022-11-20T08:54:43;95071.91;;;8.50;56.12
30744;BME280;17486;46.738;7.622;2022-11-20T08:57:09;95076.97;;;8.53;55.79
30744;BME280;17486;46.738;7.622;2022-11-20T08:59:34;95069.03;;;8.56;55.51
30744;BME280;17486;46.738;7.622;2022-11-20T09:01:59;95036.00;;;8.41;55.48
30744;BME280;17486;46.738;7.622;2022-11-20T09:04:25;95073.16;;;8.60;55.13
30744;BME280;17486;46.738;7.622;2022-11-20T09:06:50;95068.84;;;8.61;54.91
30744;BME280;17486;46.738;7.622;2022-11-20T09:09:17;95064.56;;;8.60;54.76
30744;BME280;17486;46.738;7.622;2022-11-20T09:11:43;95040.75;;;8.52;54.77
30744;BME280;17486;46.738;7.622;2022-11-20T09:14:09;95068.44;;;8.70;54.28
30744;BME280;17486;46.738;7.622;2022-11-20T09:16:34;95064.00;;;8.72;54.32
30744;BME280;17486;46.738;7.622;2022-11-20T09:18:59;95063.16;;;8.72;54.38
30744;BME280;17486;46.738;7.622;2022-11-20T09:21:25;95051.91;;;8.73;53.91
30744;BME280;17486;46.738;7.622;2022-11-20T09:23:50;95060.38;;;8.76;54.11
30744;BME280;17486;46.738;7.622;2022-11-20T09:26:15;95038.38;;;8.66;54.28
30744;BME280;17486;46.738;7.622;2022-11-20T09:28:41;95063.72;;;8.78;53.73
30744;BME280;17486;46.738;7.622;2022-11-20T09:31:08;95062.91;;;8.78;53.88
30744;BME280;17486;46.738;7.622;2022-11-20T09:33:35;95074.75;;;8.84;53.81
30744;BME280;17486;46.738;7.622;2022-11-20T09:36:00;95065.06;;;8.87;53.75
30744;BME280;17486;46.738;7.622;2022-11-20T09:38:26;95053.84;;;8.87;54.03
30744;BME280;17486;46.738;7.622;2022-11-20T09:41:04;95031.28;;;8.89;53.71
30744;BME280;17486;46.738;7.622;2022-11-20T09:46:25;95031.06;;;9.30;53.50
30744;BME280;17486;46.738;7.622;2022-11-20T09:49:06;95063.66;;;9.72;53.43
30744;BME280;17486;46.738;7.622;2022-11-20T09:51:57;95063.44;;;9.94;52.97
30744;BME280;17486;46.738;7.622;2022-11-20T09:54:33;95031.25;;;9.97;52.10
30744;BME280;17486;46.738;7.622;2022-11-20T09:57:11;95040.41;;;10.22;52.30
30744;BME280;17486;46.738;7.622;2022-11-20T09:59:43;95044.59;;;10.42;51.24
30744;BME280;17486;46.738;7.622;2022-11-20T10:07:30;95063.47;;;11.11;49.80
30744;BME280;17486;46.738;7.622;2022-11-20T10:09:57;95054.75;;;11.28;49.33
30744;BME280;17486;46.738;7.622;2022-11-20T10:15:12;95067.41;;;11.50;48.09
30744;BME280;17486;46.738;7.622;2022-11-20T10:20:33;95061.97;;;11.69;47.12
30744;BME280;17486;46.738;7.622;2022-11-20T10:31:29;95021.16;;;11.54;46.59
30744;BME280;17486;46.738;7.622;2022-11-20T10:33:58;95042.59;;;11.59;46.52
30744;BME280;17486;46.738;7.622;2022-11-20T10:36:32;95017.78;;;11.37;46.32
30744;BME280;17486;46.738;7.622;2022-11-20T10:39:03;95015.00;;;11.40;46.37
30744;BME280;17486;46.738;7.622;2022-11-20T10:41:39;95000.19;;;11.41;45.92
30744;BME280;17486;46.738;7.622;2022-11-20T10:44:16;94996.56;;;11.59;46.69
30744;BME280;17486;46.738;7.622;2022-11-20T10:47:02;95029.53;;;12.05;46.47
30744;BME280;17486;46.738;7.622;2022-11-20T10:49:30;95008.72;;;12.20;45.84
30744;BME280;17486;46.738;7.622;2022-11-20T10:52:13;95022.94;;;12.57;45.71
30744;BME280;17486;46.738;7.622;2022-11-20T11:00:04;94979.91;;;13.06;44.19
30744;BME280;17486;46.738;7.622;2022-11-20T11:02:51;95009.22;;;13.52;43.93
30744;BME280;17486;46.738;7.622;2022-11-20T11:05:24;95005.97;;;13.75;43.23
30744;BME280;17486;46.738;7.622;2022-11-20T11:07:55;95009.66;;;13.99;43.04
30744;BME280;17486;46.738;7.622;2022-11-20T11:10:33;95012.00;;;14.16;42.50
30744;BME280;17486;46.738;7.622;2022-11-20T11:13:01;95003.00;;;14.33;42.09
30744;BME280;17486;46.738;7.622;2022-11-20T11:15:30;94991.44;;;14.49;41.70
30744;BME280;17486;46.738;7.622;2022-11-20T11:17:56;94995.66;;;14.64;40.67
30744;BME280;17486;46.738;7.622;2022-11-20T11:20:23;94988.84;;;14.74;40.86
30744;BME280;17486;46.738;7.622;2022-11-20T11:22:55;94988.81;;;14.87;40.66
30744;BME280;17486;46.738;7.622;2022-11-20T11:25:34;94988.81;;;15.12;39.98
30744;BME280;17486;46.738;7.622;2022-11-20T11:28:04;94946.75;;;15.02;39.36
30744;BME280;17486;46.738;7.622;2022-11-20T11:30:41;94950.09;;;15.04;39.63
30744;BME280;17486;46.738;7.622;2022-11-20T11:33:18;94945.78;;;15.16;38.88
30744;BME280;17486;46.738;7.622;2022-11-20T11:35:49;94974.25;;;15.45;38.73
30744;BME280;17486;46.738;7.622;2022-11-20T11:38:21;94964.41;;;15.59;38.63
30744;BME280;17486;46.738;7.622;2022-11-20T11:40:47;94970.06;;;15.78;38.16
30744;BME280;17486;46.738;7.622;2022-11-20T11:43:36;94952.59;;;15.89;37.77
30744;BME280;17486;46.738;7.622;2022-11-20T11:48:57;94935.13;;;16.13;37.60
30744;BME280;17486;46.738;7.622;2022-11-20T11:51:32;94935.56;;;16.18;36.84
30744;BME280;17486;46.738;7.622;2022-11-20T11:54:00;94919.94;;;15.94;36.31
30744;BME280;17486;46.738;7.622;2022-11-20T11:56:28;94915.44;;;15.96;36.22
30744;BME280;17486;46.738;7.622;2022-11-20T11:58:57;94925.56;;;16.12;36.64
30744;BME280;17486;46.738;7.622;2022-11-20T12:01:43;94909.34;;;15.84;36.19
30744;BME280;17486;46.738;7.622;2022-11-20T12:06:45;94891.13;;;15.58;37.03
30744;BME280;17486;46.738;7.622;2022-11-20T12:09:14;94907.16;;;15.89;36.56
30744;BME280;17486;46.738;7.622;2022-11-20T12:11:49;94904.94;;;16.07;36.65
30744;BME280;17486;46.738;7.622;2022-11-20T12:14:42;94896.47;;;16.26;36.63
30744;BME280;17486;46.738;7.622;2022-11-20T12:17:12;94879.75;;;16.50;35.86
30744;BME280;17486;46.738;7.622;2022-11-20T12:19:38;94890.69;;;16.78;35.78
30744;BME280;17486;46.738;7.622;2022-11-20T12:30:27;94830.75;;;16.71;34.50
30744;BME280;17486;46.738;7.622;2022-11-20T12:39:17;94836.66;;;17.50;34.02
30744;BME280;17486;46.738;7.622;2022-11-20T12:53:30;94797.88;;;18.25;32.54
30744;BME280;17486;46.738;7.622;2022-11-20T13:07:06;94831.16;;;18.96;30.82
30744;BME280;17486;46.738;7.622;2022-11-20T13:09:33;94842.09;;;19.01;30.74
30744;BME280;17486;46.738;7.622;2022-11-20T13:12:07;94829.78;;;19.12;30.60
30744;BME280;17486;46.738;7.622;2022-11-20T13:14:41;94801.47;;;19.04;30.29
30744;BME280;17486;46.738;7.622;2022-11-20T13:17:12;94817.84;;;19.27;30.36
30744;BME280;17486;46.738;7.622;2022-11-20T13:19:39;94791.31;;;19.29;30.05
30744;BME280;17486;46.738;7.622;2022-11-20T13:22:05;94793.13;;;19.18;30.09
30744;BME280;17486;46.738;7.622;2022-11-20T13:24:32;94790.75;;;19.25;29.94
30744;BME280;17486;46.738;7.622;2022-11-20T13:29:42;94773.94;;;19.36;29.41
30744;BME280;17486;46.738;7.622;2022-11-20T13:32:20;94795.84;;;19.56;29.55
30744;BME280;17486;46.738;7.622;2022-11-20T13:34:57;94804.81;;;19.83;29.42
30744;BME280;17486;46.738;7.622;2022-11-20T13:37:35;94781.63;;;20.14;29.23
30744;BME280;17486;46.738;7.622;2022-11-20T13:42:45;94775.94;;;21.01;27.48
30744;BME280;17486;46.738;7.622;2022-11-20T13:45:31;94784.22;;;21.42;27.61
30744;BME280;17486;46.738;7.622;2022-11-20T13:48:01;94781.97;;;21.74;26.81
30744;BME280;17486;46.738;7.622;2022-11-20T13:51:00;94778.16;;;23.05;26.86
30744;BME280;17486;46.738;7.622;2022-11-20T13:56:28;94764.25;;;23.27;24.47
30744;BME280;17486;46.738;7.622;2022-11-20T14:01:30;94776.44;;;24.42;25.73
30744;BME280;17486;46.738;7.622;2022-11-20T14:04:05;94769.81;;;25.62;24.10
30744;BME280;17486;46.738;7.622;2022-11-20T14:06:38;94758.13;;;26.31;22.89
30744;BME280;17486;46.738;7.622;2022-11-20T14:09:11;94774.41;;;26.22;21.67
30744;BME280;17486;46.738;7.622;2022-11-20T14:11:46;94783.25;;;25.08;21.89
30744;BME280;17486;46.738;7.622;2022-11-20T14:14:24;94785.22;;;24.03;22.38
30744;BME280;17486;46.738;7.622;2022-11-20T14:16:51;94785.16;;;24.28;23.16
30744;BME280;17486;46.738;7.622;2022-11-20T14:21:42;94779.66;;;26.15;21.27
30744;BME280;17486;46.738;7.622;2022-11-20T14:24:11;94760.25;;;26.06;20.93
30744;BME280;17486;46.738;7.622;2022-11-20T14:26:37;94778.91;;;25.53;20.72
30744;BME280;17486;46.738;7.622;2022-11-20T14:29:13;94769.47;;;24.41;21.84
30744;BME280;17486;46.738;7.622;2022-11-20T14:31:38;94778.19;;;23.29;22.36
30744;BME280;17486;46.738;7.622;2022-11-20T14:34:04;94774.06;;;22.16;23.30
30744;BME280;17486;46.738;7.622;2022-11-20T14:36:29;94780.03;;;21.13;24.25
30744;BME280;17486;46.738;7.622;2022-11-20T14:38:55;94776.50;;;20.13;25.22
30744;BME280;17486;46.738;7.622;2022-11-20T14:41:22;94771.34;;;19.26;26.33
30744;BME280;17486;46.738;7.622;2022-11-20T14:43:53;94784.47;;;18.48;27.33